sensor_id;sensor_type;location;lat;lon;timestamp;P1;durP1;ratioP1;P2;durP2;ratioP2
26540;SDS011;14206;50.202;10.948;2022-11-15T00:00:48;6.15;;;5.00;;
26540;SDS011;14206;50.202;10.948;2022-11-15T00:03:34;9.35;;;7.35;;
26540;SDS011;14206;50.202;10.948;2022-11-15T00:06:20;8.45;;;6.63;;
26540;SDS011;14206;50.202;10.948;2022-11-15T00:09:05;7.82;;;5.88;;
26540;SDS011;14206;50.202;10.948;2022-11-15T00:11:51;6.85;;;5.55;;
26540;SDS011;14206;50.202;10.948;2022-11-15T00:14:37;6.20;;;5.05;;
26540;SDS011;14206;50.202;10.948;2022-11-15T00:17:22;7.18;;;5.78;;
26540;SDS011;14206;50.202;10.948;2022-11-15T00:20:08;6.55;;;5.35;;
26540;SDS011;14206;50.202;10.948;2022-11-15T00:22:54;8.18;;;5.05;;
26540;SDS011;14206;50.202;10.948;2022-11-15T00:25:39;7.40;;;5.57;;
26540;SDS011;14206;50.202;10.948;2022-11-15T00:28:25;6.00;;;5.18;;
26540;SDS011;14206;50.202;10.948;2022-11-15T00:31:12;6.57;;;5.13;;
26540;SDS011;14206;50.202;10.948;2022-11-15T00:33:58;6.93;;;5.60;;
26540;SDS011;14206;50.202;10.948;2022-11-15T00:36:43;6.45;;;5.22;;
26540;SDS011;14206;50.202;10.948;2022-11-15T00:39:28;8.13;;;5.88;;
26540;SDS011;14206;50.202;10.948;2022-11-15T00:42:14;6.18;;;5.10;;
26540;SDS011;14206;50.202;10.948;2022-11-15T00:44:59;6.10;;;5.28;;
26540;SDS011;14206;50.202;10.948;2022-11-15T00:47:45;7.88;;;5.10;;
26540;SDS011;14206;50.202;10.948;2022-11-15T00:50:31;6.55;;;5.22;;
26540;SDS011;14206;50.202;10.948;2022-11-15T00:53:17;6.50;;;5.00;;
26540;SDS011;14206;50.202;10.948;2022-11-15T00:56:02;6.13;;;4.90;;
26540;SDS011;14206;50.202;10.948;2022-11-15T00:58:48;6.53;;;4.90;;
26540;SDS011;14206;50.202;10.948;2022-11-15T01:01:33;6.85;;;5.15;;
26540;SDS011;14206;50.202;10.948;2022-11-15T01:04:19;6.90;;;5.32;;
26540;SDS011;14206;50.202;10.948;2022-11-15T01:07:04;7.20;;;5.47;;
26540;SDS011;14206;50.202;10.948;2022-11-15T01:09:50;7.45;;;5.75;;
26540;SDS011;14206;50.202;10.948;2022-11-15T01:12:35;7.13;;;5.28;;
26540;SDS011;14206;50.202;10.948;2022-11-15T01:15:21;7.25;;;5.60;;
26540;SDS011;14206;50.202;10.948;2022-11-15T01:18:06;6.70;;;5.35;;
26540;SDS011;14206;50.202;10.948;2022-11-15T01:20:52;6.15;;;4.90;;
26540;SDS011;14206;50.202;10.948;2022-11-15T01:23:41;6.22;;;5.20;;
26540;SDS011;14206;50.202;10.948;2022-11-15T01:26:27;6.80;;;5.30;;
26540;SDS011;14206;50.202;10.948;2022-11-15T01:29:14;6.35;;;4.93;;
26540;SDS011;14206;50.202;10.948;2022-11-15T01:31:59;6.53;;;5.32;;
26540;SDS011;14206;50.202;10.948;2022-11-15T01:34:44;6.90;;;5.28;;
26540;SDS011;14206;50.202;10.948;2022-11-15T01:37:30;6.97;;;5.45;;
26540;SDS011;14206;50.202;10.948;2022-11-15T01:40:15;7.45;;;5.10;;
26540;SDS011;14206;50.202;10.948;2022-11-15T01:43:18;7.72;;;6.00;;
26540;SDS011;14206;50.202;10.948;2022-11-15T01:49:14;6.85;;;4.97;;
26540;SDS011;14206;50.202;10.948;2022-11-15T01:52:16;5.63;;;4.90;;
26540;SDS011;14206;50.202;10.948;2022-11-15T01:58:20;7.53;;;5.78;;
26540;SDS011;14206;50.202;10.948;2022-11-15T02:01:06;6.32;;;5.18;;
26540;SDS011;14206;50.202;10.948;2022-11-15T02:04:04;8.52;;;6.32;;
26540;SDS011;14206;50.202;10.948;2022-11-15T02:06:56;11.82;;;8.57;;
26540;SDS011;14206;50.202;10.948;2022-11-15T02:09:42;11.75;;;7.80;;
26540;SDS011;14206;50.202;10.948;2022-11-15T02:12:28;8.68;;;6.95;;
26540;SDS011;14206;50.202;10.948;2022-11-15T02:15:16;8.88;;;7.28;;
26540;SDS011;14206;50.202;10.948;2022-11-15T02:18:22;8.43;;;6.07;;
26540;SDS011;14206;50.202;10.948;2022-11-15T02:27:29;7.57;;;5.88;;
26540;SDS011;14206;50.202;10.948;2022-11-15T02:30:42;7.65;;;6.15;;
26540;SDS011;14206;50.202;10.948;2022-11-15T02:40:16;7.88;;;6.65;;
26540;SDS011;14206;50.202;10.948;2022-11-15T02:43:12;8.13;;;6.13;;
26540;SDS011;14206;50.202;10.948;2022-11-15T02:49:49;7.20;;;5.82;;
26540;SDS011;14206;50.202;10.948;2022-11-15T02:52:38;10.13;;;6.35;;
26540;SDS011;14206;50.202;10.948;2022-11-15T02:55:28;6.80;;;5.70;;
26540;SDS011;14206;50.202;10.948;2022-11-15T03:07:44;6.15;;;4.97;;
26540;SDS011;14206;50.202;10.948;2022-11-15T03:22:25;5.97;;;4.82;;
26540;SDS011;14206;50.202;10.948;2022-11-15T03:25:16;5.40;;;4.90;;
26540;SDS011;14206;50.202;10.948;2022-11-15T03:28:05;5.97;;;4.95;;
26540;SDS011;14206;50.202;10.948;2022-11-15T03:30:54;6.40;;;5.00;;
26540;SDS011;14206;50.202;10.948;2022-11-15T03:33:41;6.50;;;4.80;;
26540;SDS011;14206;50.202;10.948;2022-11-15T03:36:28;5.20;;;4.55;;
26540;SDS011;14206;50.202;10.948;2022-11-15T03:39:16;6.03;;;4.80;;
26540;SDS011;14206;50.202;10.948;2022-11-15T03:42:08;5.28;;;4.70;;
26540;SDS011;14206;50.202;10.948;2022-11-15T03:45:44;4.80;;;4.13;;
26540;SDS011;14206;50.202;10.948;2022-11-15T03:48:17;5.72;;;4.75;;
26540;SDS011;14206;50.202;10.948;2022-11-15T03:51:06;6.60;;;4.80;;
26540;SDS011;14206;50.202;10.948;2022-11-15T03:53:51;5.22;;;4.22;;
26540;SDS011;14206;50.202;10.948;2022-11-15T03:56:36;5.80;;;4.47;;
26540;SDS011;14206;50.202;10.948;2022-11-15T03:59:22;5.53;;;4.68;;
26540;SDS011;14206;50.202;10.948;2022-11-15T04:02:07;5.53;;;4.45;;
26540;SDS011;14206;50.202;10.948;2022-11-15T04:04:53;5.15;;;4.15;;
26540;SDS011;14206;50.202;10.948;2022-11-15T04:07:38;6.50;;;5.25;;
26540;SDS011;14206;50.202;10.948;2022-11-15T04:10:23;6.10;;;4.88;;
26540;SDS011;14206;50.202;10.948;2022-11-15T04:13:09;7.07;;;5.32;;
26540;SDS011;14206;50.202;10.948;2022-11-15T04:15:54;7.32;;;5.30;;
26540;SDS011;14206;50.202;10.948;2022-11-15T04:18:40;5.80;;;4.80;;
26540;SDS011;14206;50.202;10.948;2022-11-15T04:21:25;6.80;;;5.18;;
26540;SDS011;14206;50.202;10.948;2022-11-15T04:24:29;6.05;;;4.80;;
26540;SDS011;14206;50.202;10.948;2022-11-15T04:27:15;7.32;;;5.20;;
26540;SDS011;14206;50.202;10.948;2022-11-15T04:30:00;6.25;;;4.85;;
26540;SDS011;14206;50.202;10.948;2022-11-15T04:32:46;5.88;;;4.45;;
26540;SDS011;14206;50.202;10.948;2022-11-15T04:35:31;5.50;;;4.68;;
26540;SDS011;14206;50.202;10.948;2022-11-15T04:38:16;5.60;;;4.78;;
26540;SDS011;14206;50.202;10.948;2022-11-15T04:41:02;6.40;;;5.00;;
26540;SDS011;14206;50.202;10.948;2022-11-15T04:43:48;6.43;;;5.00;;
26540;SDS011;14206;50.202;10.948;2022-11-15T04:46:33;5.18;;;4.57;;
26540;SDS011;14206;50.202;10.948;2022-11-15T04:49:19;6.18;;;4.65;;
26540;SDS011;14206;50.202;10.948;2022-11-15T04:52:04;5.50;;;4.38;;
26540;SDS011;14206;50.202;10.948;2022-11-15T04:54:50;5.97;;;4.70;;
26540;SDS011;14206;50.202;10.948;2022-11-15T04:57:36;5.28;;;4.47;;
26540;SDS011;14206;50.202;10.948;2022-11-15T05:00:22;6.10;;;4.70;;
26540;SDS011;14206;50.202;10.948;2022-11-15T05:03:08;6.07;;;4.93;;
26540;SDS011;14206;50.202;10.948;2022-11-15T05:08:59;5.73;;;4.90;;
26540;SDS011;14206;50.202;10.948;2022-11-15T05:11:44;6.82;;;5.30;;
26540;SDS011;14206;50.202;10.948;2022-11-15T05:14:30;6.32;;;4.85;;
26540;SDS011;14206;50.202;10.948;2022-11-15T05:17:16;5.88;;;4.75;;
26540;SDS011;14206;50.202;10.948;2022-11-15T05:20:01;6.78;;;5.15;;
26540;SDS011;14206;50.202;10.948;2022-11-15T05:22:47;6.95;;;5.10;;
26540;SDS011;14206;50.202;10.948;2022-11-15T05:25:32;7.65;;;5.80;;
26540;SDS011;14206;50.202;10.948;2022-11-15T05:28:17;8.23;;;6.07;;
26540;SDS011;14206;50.202;10.948;2022-11-15T05:31:04;9.05;;;6.47;;
26540;SDS011;14206;50.202;10.948;2022-11-15T05:33:51;8.00;;;6.40;;
26540;SDS011;14206;50.202;10.948;2022-11-15T05:36:38;8.52;;;6.78;;
26540;SDS011;14206;50.202;10.948;2022-11-15T05:39:27;7.82;;;6.35;;
26540;SDS011;14206;50.202;10.948;2022-11-15T05:42:13;9.30;;;6.88;;
26540;SDS011;14206;50.202;10.948;2022-11-15T05:44:59;7.93;;;6.43;;
26540;SDS011;14206;50.202;10.948;2022-11-15T05:47:47;7.72;;;5.97;;
26540;SDS011;14206;50.202;10.948;2022-11-15T05:50:33;8.13;;;6.10;;
26540;SDS011;14206;50.202;10.948;2022-11-15T05:53:22;7.25;;;5.53;;
26540;SDS011;14206;50.202;10.948;2022-11-15T05:56:09;6.75;;;5.53;;
26540;SDS011;14206;50.202;10.948;2022-11-15T05:58:55;7.88;;;5.80;;
26540;SDS011;14206;50.202;10.948;2022-11-15T06:01:43;6.75;;;5.10;;
26540;SDS011;14206;50.202;10.948;2022-11-15T06:04:30;6.38;;;5.15;;
26540;SDS011;14206;50.202;10.948;2022-11-15T06:07:15;6.78;;;5.35;;
26540;SDS011;14206;50.202;10.948;2022-11-15T06:10:01;6.97;;;5.40;;
26540;SDS011;14206;50.202;10.948;2022-11-15T06:12:46;7.15;;;5.40;;
26540;SDS011;14206;50.202;10.948;2022-11-15T06:15:32;6.63;;;5.63;;
26540;SDS011;14206;50.202;10.948;2022-11-15T06:18:20;7.38;;;5.43;;
26540;SDS011;14206;50.202;10.948;2022-11-15T06:21:06;7.13;;;5.43;;
26540;SDS011;14206;50.202;10.948;2022-11-15T06:23:52;7.63;;;6.07;;
26540;SDS011;14206;50.202;10.948;2022-11-15T06:26:37;8.02;;;6.18;;
26540;SDS011;14206;50.202;10.948;2022-11-15T06:29:23;7.15;;;5.47;;
26540;SDS011;14206;50.202;10.948;2022-11-15T06:32:08;7.15;;;5.63;;
26540;SDS011;14206;50.202;10.948;2022-11-15T06:34:53;8.02;;;5.68;;
26540;SDS011;14206;50.202;10.948;2022-11-15T06:37:39;7.13;;;5.63;;
26540;SDS011;14206;50.202;10.948;2022-11-15T06:40:25;7.70;;;5.60;;
26540;SDS011;14206;50.202;10.948;2022-11-15T06:43:11;8.07;;;5.55;;
26540;SDS011;14206;50.202;10.948;2022-11-15T06:46:00;9.70;;;7.03;;
26540;SDS011;14206;50.202;10.948;2022-11-15T06:48:46;8.25;;;6.47;;
26540;SDS011;14206;50.202;10.948;2022-11-15T06:51:34;9.52;;;6.35;;
26540;SDS011;14206;50.202;10.948;2022-11-15T06:54:19;7.28;;;5.80;;
26540;SDS011;14206;50.202;10.948;2022-11-15T06:57:05;7.82;;;6.35;;
26540;SDS011;14206;50.202;10.948;2022-11-15T06:59:51;7.00;;;5.63;;
26540;SDS011;14206;50.202;10.948;2022-11-15T07:02:36;6.85;;;5.57;;
26540;SDS011;14206;50.202;10.948;2022-11-15T07:05:22;6.85;;;5.32;;
26540;SDS011;14206;50.202;10.948;2022-11-15T07:08:07;7.72;;;5.80;;
26540;SDS011;14206;50.202;10.948;2022-11-15T07:10:54;7.25;;;5.45;;
26540;SDS011;14206;50.202;10.948;2022-11-15T07:13:44;7.85;;;6.22;;
26540;SDS011;14206;50.202;10.948;2022-11-15T07:16:30;7.68;;;6.25;;
26540;SDS011;14206;50.202;10.948;2022-11-15T07:19:15;7.13;;;5.90;;
26540;SDS011;14206;50.202;10.948;2022-11-15T07:22:00;7.88;;;6.25;;
26540;SDS011;14206;50.202;10.948;2022-11-15T07:24:46;7.40;;;6.18;;
26540;SDS011;14206;50.202;10.948;2022-11-15T07:27:31;8.38;;;6.70;;
26540;SDS011;14206;50.202;10.948;2022-11-15T07:30:17;9.20;;;7.15;;
26540;SDS011;14206;50.202;10.948;2022-11-15T07:33:03;9.10;;;7.28;;
26540;SDS011;14206;50.202;10.948;2022-11-15T07:35:49;9.35;;;7.03;;
26540;SDS011;14206;50.202;10.948;2022-11-15T07:38:34;10.45;;;7.97;;
26540;SDS011;14206;50.202;10.948;2022-11-15T07:41:26;7.95;;;6.55;;
26540;SDS011;14206;50.202;10.948;2022-11-15T07:44:12;7.85;;;6.15;;
26540;SDS011;14206;50.202;10.948;2022-11-15T07:46:57;8.43;;;7.28;;
26540;SDS011;14206;50.202;10.948;2022-11-15T07:49:43;7.45;;;6.30;;
26540;SDS011;14206;50.202;10.948;2022-11-15T07:52:28;5.95;;;5.03;;
26540;SDS011;14206;50.202;10.948;2022-11-15T07:55:14;6.63;;;4.78;;
26540;SDS011;14206;50.202;10.948;2022-11-15T07:58:03;5.72;;;4.82;;
26540;SDS011;14206;50.202;10.948;2022-11-15T08:00:50;4.88;;;4.32;;
26540;SDS011;14206;50.202;10.948;2022-11-15T08:06:20;5.32;;;4.30;;
26540;SDS011;14206;50.202;10.948;2022-11-15T08:09:06;7.07;;;4.80;;
26540;SDS011;14206;50.202;10.948;2022-11-15T08:11:51;5.70;;;4.30;;
26540;SDS011;14206;50.202;10.948;2022-11-15T08:14:37;4.55;;;4.07;;
26540;SDS011;14206;50.202;10.948;2022-11-15T08:17:23;4.97;;;4.47;;
26540;SDS011;14206;50.202;10.948;2022-11-15T08:20:10;5.53;;;4.05;;
26540;SDS011;14206;50.202;10.948;2022-11-15T08:22:59;3.95;;;3.30;;
26540;SDS011;14206;50.202;10.948;2022-11-15T08:25:46;4.70;;;3.78;;
26540;SDS011;14206;50.202;10.948;2022-11-15T08:28:32;4.10;;;3.70;;
26540;SDS011;14206;50.202;10.948;2022-11-15T08:31:17;4.78;;;4.07;;
26540;SDS011;14206;50.202;10.948;2022-11-15T08:34:04;3.95;;;3.55;;
26540;SDS011;14206;50.202;10.948;2022-11-15T08:36:50;4.45;;;3.80;;
26540;SDS011;14206;50.202;10.948;2022-11-15T08:39:36;5.07;;;3.72;;
26540;SDS011;14206;50.202;10.948;2022-11-15T08:42:22;4.53;;;3.78;;
26540;SDS011;14206;50.202;10.948;2022-11-15T08:45:08;4.80;;;4.30;;
26540;SDS011;14206;50.202;10.948;2022-11-15T08:47:54;4.72;;;4.00;;
26540;SDS011;14206;50.202;10.948;2022-11-15T08:50:40;5.28;;;4.47;;
26540;SDS011;14206;50.202;10.948;2022-11-15T08:53:25;6.72;;;4.72;;
26540;SDS011;14206;50.202;10.948;2022-11-15T08:56:13;5.82;;;4.60;;
26540;SDS011;14206;50.202;10.948;2022-11-15T08:58:59;5.68;;;4.57;;
26540;SDS011;14206;50.202;10.948;2022-11-15T09:01:45;5.40;;;4.22;;
26540;SDS011;14206;50.202;10.948;2022-11-15T09:04:30;5.25;;;4.75;;
26540;SDS011;14206;50.202;10.948;2022-11-15T09:07:16;5.70;;;4.97;;
26540;SDS011;14206;50.202;10.948;2022-11-15T09:10:03;6.72;;;4.80;;
26540;SDS011;14206;50.202;10.948;2022-11-15T09:12:49;5.70;;;4.60;;
26540;SDS011;14206;50.202;10.948;2022-11-15T09:15:35;5.28;;;4.00;;
26540;SDS011;14206;50.202;10.948;2022-11-15T09:18:21;5.78;;;3.50;;
26540;SDS011;14206;50.202;10.948;2022-11-15T09:21:07;3.90;;;3.42;;
26540;SDS011;14206;50.202;10.948;2022-11-15T09:23:54;4.65;;;3.55;;
26540;SDS011;14206;50.202;10.948;2022-11-15T09:26:39;4.38;;;3.72;;
26540;SDS011;14206;50.202;10.948;2022-11-15T09:29:25;4.25;;;3.53;;
26540;SDS011;14206;50.202;10.948;2022-11-15T09:32:11;4.40;;;3.60;;
26540;SDS011;14206;50.202;10.948;2022-11-15T09:34:56;4.07;;;3.60;;
26540;SDS011;14206;50.202;10.948;2022-11-15T09:37:42;5.85;;;3.65;;
26540;SDS011;14206;50.202;10.948;2022-11-15T09:40:29;4.55;;;3.70;;
26540;SDS011;14206;50.202;10.948;2022-11-15T09:46:18;3.47;;;3.08;;
26540;SDS011;14206;50.202;10.948;2022-11-15T09:49:29;3.85;;;3.08;;
26540;SDS011;14206;50.202;10.948;2022-11-15T09:52:16;3.25;;;2.70;;
26540;SDS011;14206;50.202;10.948;2022-11-15T09:54:46;4.75;;;3.10;;
26540;SDS011;14206;50.202;10.948;2022-11-15T10:00:22;4.20;;;2.67;;
26540;SDS011;14206;50.202;10.948;2022-11-15T10:03:18;2.83;;;2.53;;
26540;SDS011;14206;50.202;10.948;2022-11-15T10:08:23;2.22;;;2.03;;
26540;SDS011;14206;50.202;10.948;2022-11-15T10:10:59;4.00;;;3.40;;
26540;SDS011;14206;50.202;10.948;2022-11-15T10:13:48;2.55;;;2.35;;
26540;SDS011;14206;50.202;10.948;2022-11-15T10:16:25;2.85;;;2.63;;
26540;SDS011;14206;50.202;10.948;2022-11-15T10:19:04;2.67;;;2.40;;
26540;SDS011;14206;50.202;10.948;2022-11-15T10:24:47;2.75;;;2.47;;
26540;SDS011;14206;50.202;10.948;2022-11-15T10:27:17;3.03;;;2.53;;
26540;SDS011;14206;50.202;10.948;2022-11-15T10:29:49;2.60;;;2.40;;
26540;SDS011;14206;50.202;10.948;2022-11-15T10:32:19;2.60;;;2.38;;
26540;SDS011;14206;50.202;10.948;2022-11-15T10:34:48;2.88;;;2.50;;
26540;SDS011;14206;50.202;10.948;2022-11-15T10:37:26;3.45;;;2.58;;
26540;SDS011;14206;50.202;10.948;2022-11-15T10:40:14;3.75;;;3.38;;
26540;SDS011;14206;50.202;10.948;2022-11-15T10:42:43;3.95;;;3.55;;
26540;SDS011;14206;50.202;10.948;2022-11-15T10:45:23;2.85;;;2.53;;
26540;SDS011;14206;50.202;10.948;2022-11-15T10:47:51;2.67;;;2.42;;
26540;SDS011;14206;50.202;10.948;2022-11-15T10:50:28;2.50;;;2.30;;
26540;SDS011;14206;50.202;10.948;2022-11-15T10:52:57;3.55;;;2.38;;
26540;SDS011;14206;50.202;10.948;2022-11-15T10:55:28;2.50;;;2.30;;
26540;SDS011;14206;50.202;10.948;2022-11-15T10:58:02;2.20;;;2.00;;
26540;SDS011;14206;50.202;10.948;2022-11-15T11:00:33;2.58;;;2.35;;
26540;SDS011;14206;50.202;10.948;2022-11-15T11:03:18;2.90;;;2.57;;
26540;SDS011;14206;50.202;10.948;2022-11-15T11:06:04;2.60;;;2.30;;
26540;SDS011;14206;50.202;10.948;2022-11-15T11:08:39;3.03;;;2.58;;
26540;SDS011;14206;50.202;10.948;2022-11-15T11:11:06;2.92;;;2.25;;
26540;SDS011;14206;50.202;10.948;2022-11-15T11:13:38;2.65;;;2.45;;
26540;SDS011;14206;50.202;10.948;2022-11-15T11:16:09;3.00;;;2.70;;
26540;SDS011;14206;50.202;10.948;2022-11-15T11:18:47;3.30;;;2.95;;
26540;SDS011;14206;50.202;10.948;2022-11-15T11:21:44;2.70;;;2.50;;
26540;SDS011;14206;50.202;10.948;2022-11-15T11:24:21;3.97;;;2.90;;
26540;SDS011;14206;50.202;10.948;2022-11-15T11:35:01;3.58;;;2.70;;
26540;SDS011;14206;50.202;10.948;2022-11-15T11:37:54;2.78;;;2.40;;
26540;SDS011;14206;50.202;10.948;2022-11-15T11:40:44;2.42;;;2.00;;
26540;SDS011;14206;50.202;10.948;2022-11-15T11:49:09;2.90;;;2.63;;
26540;SDS011;14206;50.202;10.948;2022-11-15T11:57:04;4.72;;;3.25;;
26540;SDS011;14206;50.202;10.948;2022-11-15T11:59:58;3.40;;;2.78;;
26540;SDS011;14206;50.202;10.948;2022-11-15T12:02:42;3.10;;;2.70;;
26540;SDS011;14206;50.202;10.948;2022-11-15T12:05:32;2.90;;;2.17;;
26540;SDS011;14206;50.202;10.948;2022-11-15T12:08:17;2.50;;;2.08;;
26540;SDS011;14206;50.202;10.948;2022-11-15T12:11:08;2.72;;;2.33;;
26540;SDS011;14206;50.202;10.948;2022-11-15T12:13:40;4.97;;;2.90;;
26540;SDS011;14206;50.202;10.948;2022-11-15T12:18:47;3.13;;;2.50;;
26540;SDS011;14206;50.202;10.948;2022-11-15T12:24:02;3.20;;;2.60;;
26540;SDS011;14206;50.202;10.948;2022-11-15T12:26:40;3.85;;;2.40;;
26540;SDS011;14206;50.202;10.948;2022-11-15T12:29:30;3.30;;;2.83;;
26540;SDS011;14206;50.202;10.948;2022-11-15T12:32:01;2.90;;;2.10;;
26540;SDS011;14206;50.202;10.948;2022-11-15T12:34:34;2.50;;;1.70;;
26540;SDS011;14206;50.202;10.948;2022-11-15T12:37:52;3.00;;;2.38;;
26540;SDS011;14206;50.202;10.948;2022-11-15T12:42:36;3.70;;;2.00;;
26540;SDS011;14206;50.202;10.948;2022-11-15T12:45:31;2.10;;;1.88;;
26540;SDS011;14206;50.202;10.948;2022-11-15T12:58:50;2.90;;;2.17;;
26540;SDS011;14206;50.202;10.948;2022-11-15T13:04:23;3.22;;;2.50;;
26540;SDS011;14206;50.202;10.948;2022-11-15T13:12:08;2.40;;;1.60;;
26540;SDS011;14206;50.202;10.948;2022-11-15T13:19:47;1.60;;;1.40;;
26540;SDS011;14206;50.202;10.948;2022-11-15T13:22:18;1.30;;;1.20;;
26540;SDS011;14206;50.202;10.948;2022-11-15T13:25:04;1.52;;;1.35;;
26540;SDS011;14206;50.202;10.948;2022-11-15T13:27:47;3.08;;;2.78;;
26540;SDS011;14206;50.202;10.948;2022-11-15T13:30:22;3.15;;;2.53;;
26540;SDS011;14206;50.202;10.948;2022-11-15T13:32:50;3.28;;;2.50;;
26540;SDS011;14206;50.202;10.948;2022-11-15T13:37:50;3.85;;;2.55;;
26540;SDS011;14206;50.202;10.948;2022-11-15T13:40:24;2.78;;;2.33;;
26540;SDS011;14206;50.202;10.948;2022-11-15T13:42:53;2.33;;;1.90;;
26540;SDS011;14206;50.202;10.948;2022-11-15T13:45:20;3.35;;;1.90;;
26540;SDS011;14206;50.202;10.948;2022-11-15T13:47:55;3.63;;;2.30;;
26540;SDS011;14206;50.202;10.948;2022-11-15T13:50:25;4.80;;;2.40;;
26540;SDS011;14206;50.202;10.948;2022-11-15T13:52:57;3.95;;;2.72;;
26540;SDS011;14206;50.202;10.948;2022-11-15T13:55:26;3.45;;;2.83;;
26540;SDS011;14206;50.202;10.948;2022-11-15T13:57:55;4.53;;;3.40;;
26540;SDS011;14206;50.202;10.948;2022-11-15T14:02:52;3.65;;;3.33;;
26540;SDS011;14206;50.202;10.948;2022-11-15T14:05:22;5.13;;;3.42;;
26540;SDS011;14206;50.202;10.948;2022-11-15T14:07:58;3.08;;;2.75;;
26540;SDS011;14206;50.202;10.948;2022-11-15T14:10:32;3.70;;;3.08;;
26540;SDS011;14206;50.202;10.948;2022-11-15T14:13:02;2.40;;;2.20;;
26540;SDS011;14206;50.202;10.948;2022-11-15T14:15:32;4.28;;;3.10;;
26540;SDS011;14206;50.202;10.948;2022-11-15T14:18:01;3.28;;;2.85;;
26540;SDS011;14206;50.202;10.948;2022-11-15T14:20:32;3.42;;;2.50;;
26540;SDS011;14206;50.202;10.948;2022-11-15T14:23:00;2.63;;;2.38;;
26540;SDS011;14206;50.202;10.948;2022-11-15T14:25:29;3.33;;;2.70;;
26540;SDS011;14206;50.202;10.948;2022-11-15T14:30:44;2.30;;;2.10;;
26540;SDS011;14206;50.202;10.948;2022-11-15T14:36:04;2.67;;;2.20;;
26540;SDS011;14206;50.202;10.948;2022-11-15T14:38:36;2.80;;;2.22;;
26540;SDS011;14206;50.202;10.948;2022-11-15T14:41:03;4.18;;;2.25;;
26540;SDS011;14206;50.202;10.948;2022-11-15T14:43:30;3.55;;;2.10;;
26540;SDS011;14206;50.202;10.948;2022-11-15T14:45:58;3.03;;;2.20;;
26540;SDS011;14206;50.202;10.948;2022-11-15T14:48:25;2.35;;;2.00;;
26540;SDS011;14206;50.202;10.948;2022-11-15T14:50:52;2.72;;;2.17;;
26540;SDS011;14206;50.202;10.948;2022-11-15T14:53:19;2.10;;;1.90;;
26540;SDS011;14206;50.202;10.948;2022-11-15T14:55:46;2.47;;;2.03;;
26540;SDS011;14206;50.202;10.948;2022-11-15T14:58:13;2.75;;;2.30;;
26540;SDS011;14206;50.202;10.948;2022-11-15T15:00:40;2.33;;;2.00;;
26540;SDS011;14206;50.202;10.948;2022-11-15T15:03:07;2.90;;;2.15;;
26540;SDS011;14206;50.202;10.948;2022-11-15T15:05:42;2.58;;;2.30;;
26540;SDS011;14206;50.202;10.948;2022-11-15T15:08:10;2.35;;;2.15;;
26540;SDS011;14206;50.202;10.948;2022-11-15T15:10:39;2.50;;;2.17;;
26540;SDS011;14206;50.202;10.948;2022-11-15T15:13:18;2.53;;;2.33;;
26540;SDS011;14206;50.202;10.948;2022-11-15T15:15:47;2.20;;;2.00;;
26540;SDS011;14206;50.202;10.948;2022-11-15T15:18:15;3.15;;;2.45;;
26540;SDS011;14206;50.202;10.948;2022-11-15T15:20:43;2.97;;;2.33;;
26540;SDS011;14206;50.202;10.948;2022-11-15T15:23:14;2.25;;;2.03;;
26540;SDS011;14206;50.202;10.948;2022-11-15T15:25:43;2.90;;;2.30;;
26540;SDS011;14206;50.202;10.948;2022-11-15T15:28:12;2.35;;;2.15;;
26540;SDS011;14206;50.202;10.948;2022-11-15T15:30:39;2.47;;;2.10;;
26540;SDS011;14206;50.202;10.948;2022-11-15T15:33:06;3.00;;;2.20;;
26540;SDS011;14206;50.202;10.948;2022-11-15T15:35:34;2.40;;;2.05;;
26540;SDS011;14206;50.202;10.948;2022-11-15T15:38:01;2.40;;;2.10;;
26540;SDS011;14206;50.202;10.948;2022-11-15T15:40:29;2.70;;;2.20;;
26540;SDS011;14206;50.202;10.948;2022-11-15T15:42:58;2.97;;;2.40;;
26540;SDS011;14206;50.202;10.948;2022-11-15T15:45:25;2.72;;;2.30;;
26540;SDS011;14206;50.202;10.948;2022-11-15T15:47:53;3.03;;;2.35;;
26540;SDS011;14206;50.202;10.948;2022-11-15T15:50:25;2.95;;;2.60;;
26540;SDS011;14206;50.202;10.948;2022-11-15T15:52:55;2.35;;;2.13;;
26540;SDS011;14206;50.202;10.948;2022-11-15T15:55:23;3.42;;;2.50;;
26540;SDS011;14206;50.202;10.948;2022-11-15T15:57:50;3.00;;;2.30;;
26540;SDS011;14206;50.202;10.948;2022-11-15T16:00:18;2.83;;;2.35;;
26540;SDS011;14206;50.202;10.948;2022-11-15T16:02:46;3.70;;;2.55;;
26540;SDS011;14206;50.202;10.948;2022-11-15T16:05:13;2.78;;;2.30;;
26540;SDS011;14206;50.202;10.948;2022-11-15T16:07:40;2.70;;;2.40;;
26540;SDS011;14206;50.202;10.948;2022-11-15T16:10:20;3.03;;;2.50;;
26540;SDS011;14206;50.202;10.948;2022-11-15T16:12:48;3.25;;;2.80;;
26540;SDS011;14206;50.202;10.948;2022-11-15T16:15:15;3.13;;;2.83;;
26540;SDS011;14206;50.202;10.948;2022-11-15T16:17:58;4.38;;;3.05;;
26540;SDS011;14206;50.202;10.948;2022-11-15T16:23:03;3.03;;;2.53;;
26540;SDS011;14206;50.202;10.948;2022-11-15T16:28:04;4.20;;;3.00;;
26540;SDS011;14206;50.202;10.948;2022-11-15T16:30:38;4.57;;;3.17;;
26540;SDS011;14206;50.202;10.948;2022-11-15T16:33:05;3.13;;;2.60;;
26540;SDS011;14206;50.202;10.948;2022-11-15T16:35:31;3.33;;;2.70;;
26540;SDS011;14206;50.202;10.948;2022-11-15T16:37:58;4.05;;;3.17;;
26540;SDS011;14206;50.202;10.948;2022-11-15T16:40:29;3.90;;;3.17;;
26540;SDS011;14206;50.202;10.948;2022-11-15T16:42:57;3.65;;;3.15;;
26540;SDS011;14206;50.202;10.948;2022-11-15T16:45:25;4.35;;;3.15;;
26540;SDS011;14206;50.202;10.948;2022-11-15T16:47:54;3.90;;;2.90;;
26540;SDS011;14206;50.202;10.948;2022-11-15T16:50:26;3.22;;;2.80;;
26540;SDS011;14206;50.202;10.948;2022-11-15T16:52:55;3.30;;;2.90;;
26540;SDS011;14206;50.202;10.948;2022-11-15T16:55:24;3.10;;;2.80;;
26540;SDS011;14206;50.202;10.948;2022-11-15T16:57:53;3.47;;;2.90;;
26540;SDS011;14206;50.202;10.948;2022-11-15T17:00:24;3.35;;;2.90;;
26540;SDS011;14206;50.202;10.948;2022-11-15T17:02:51;3.65;;;3.03;;
26540;SDS011;14206;50.202;10.948;2022-11-15T17:05:19;3.45;;;2.85;;
26540;SDS011;14206;50.202;10.948;2022-11-15T17:07:49;3.40;;;2.75;;
26540;SDS011;14206;50.202;10.948;2022-11-15T17:10:20;3.40;;;2.78;;
26540;SDS011;14206;50.202;10.948;2022-11-15T17:12:48;3.45;;;2.90;;
26540;SDS011;14206;50.202;10.948;2022-11-15T17:15:16;4.30;;;2.85;;
26540;SDS011;14206;50.202;10.948;2022-11-15T17:17:44;2.72;;;2.38;;
26540;SDS011;14206;50.202;10.948;2022-11-15T17:20:16;3.72;;;3.22;;
26540;SDS011;14206;50.202;10.948;2022-11-15T17:22:44;3.72;;;3.15;;
26540;SDS011;14206;50.202;10.948;2022-11-15T17:25:12;3.90;;;3.42;;
26540;SDS011;14206;50.202;10.948;2022-11-15T17:27:39;4.00;;;3.38;;
26540;SDS011;14206;50.202;10.948;2022-11-15T17:30:07;4.13;;;3.45;;
26540;SDS011;14206;50.202;10.948;2022-11-15T17:32:37;4.20;;;3.65;;
26540;SDS011;14206;50.202;10.948;2022-11-15T17:35:04;4.75;;;3.10;;
26540;SDS011;14206;50.202;10.948;2022-11-15T17:37:40;4.03;;;3.55;;
26540;SDS011;14206;50.202;10.948;2022-11-15T17:40:07;4.97;;;3.90;;
26540;SDS011;14206;50.202;10.948;2022-11-15T17:42:34;4.88;;;3.72;;
26540;SDS011;14206;50.202;10.948;2022-11-15T17:45:01;3.90;;;3.50;;
26540;SDS011;14206;50.202;10.948;2022-11-15T17:47:35;5.13;;;3.40;;
26540;SDS011;14206;50.202;10.948;2022-11-15T17:50:02;5.32;;;3.70;;
26540;SDS011;14206;50.202;10.948;2022-11-15T17:52:29;5.63;;;4.38;;
26540;SDS011;14206;50.202;10.948;2022-11-15T17:54:56;5.72;;;3.63;;
26540;SDS011;14206;50.202;10.948;2022-11-15T17:57:23;5.05;;;3.92;;
26540;SDS011;14206;50.202;10.948;2022-11-15T17:59:50;3.88;;;3.42;;